sensor_id;sensor_type;location;lat;lon;timestamp;P1;durP1;ratioP1;P2;durP2;ratioP2
44925;SDS011;30662;51.210;7.656;2023-04-24T00:00:56;0.95;;;0.52;;
44925;SDS011;30662;51.210;7.656;2023-04-24T00:03:23;0.63;;;0.63;;
44925;SDS011;30662;51.210;7.656;2023-04-24T00:05:49;0.60;;;0.60;;
44925;SDS011;30662;51.210;7.656;2023-04-24T00:08:16;1.80;;;1.05;;
44925;SDS011;30662;51.210;7.656;2023-04-24T00:10:42;0.95;;;0.43;;
44925;SDS011;30662;51.210;7.656;2023-04-24T00:13:08;0.75;;;0.55;;
44925;SDS011;30662;51.210;7.656;2023-04-24T00:15:34;1.65;;;0.82;;
44925;SDS011;30662;51.210;7.656;2023-04-24T00:18:00;2.10;;;0.65;;
44925;SDS011;30662;51.210;7.656;2023-04-24T00:20:27;0.60;;;0.60;;
44925;SDS011;30662;51.210;7.656;2023-04-24T00:22:58;2.45;;;0.73;;
44925;SDS011;30662;51.210;7.656;2023-04-24T00:25:23;0.77;;;0.60;;
44925;SDS011;30662;51.210;7.656;2023-04-24T00:27:49;1.05;;;0.70;;
44925;SDS011;30662;51.210;7.656;2023-04-24T00:30:15;0.70;;;0.70;;
44925;SDS011;30662;51.210;7.656;2023-04-24T00:32:41;1.33;;;0.60;;
44925;SDS011;30662;51.210;7.656;2023-04-24T00:35:07;1.27;;;0.70;;
44925;SDS011;30662;51.210;7.656;2023-04-24T00:37:34;0.70;;;0.70;;
44925;SDS011;30662;51.210;7.656;2023-04-24T00:40:00;1.23;;;0.77;;
44925;SDS011;30662;51.210;7.656;2023-04-24T00:42:26;2.80;;;0.80;;
44925;SDS011;30662;51.210;7.656;2023-04-24T00:44:52;0.80;;;0.80;;
44925;SDS011;30662;51.210;7.656;2023-04-24T00:47:18;1.65;;;0.90;;
44925;SDS011;30662;51.210;7.656;2023-04-24T00:49:45;1.05;;;1.05;;
44925;SDS011;30662;51.210;7.656;2023-04-24T00:52:14;2.45;;;0.90;;
44925;SDS011;30662;51.210;7.656;2023-04-24T00:54:43;1.30;;;0.93;;
44925;SDS011;30662;51.210;7.656;2023-04-24T00:57:10;0.93;;;0.73;;
44925;SDS011;30662;51.210;7.656;2023-04-24T00:59:38;0.80;;;0.80;;
44925;SDS011;30662;51.210;7.656;2023-04-24T01:02:07;1.30;;;0.85;;
44925;SDS011;30662;51.210;7.656;2023-04-24T01:04:34;1.27;;;1.17;;
44925;SDS011;30662;51.210;7.656;2023-04-24T01:07:00;0.85;;;0.85;;
44925;SDS011;30662;51.210;7.656;2023-04-24T01:09:27;1.27;;;1.17;;
44925;SDS011;30662;51.210;7.656;2023-04-24T01:11:53;1.08;;;0.70;;
44925;SDS011;30662;51.210;7.656;2023-04-24T01:14:19;2.28;;;0.95;;
44925;SDS011;30662;51.210;7.656;2023-04-24T01:16:45;0.80;;;0.80;;
44925;SDS011;30662;51.210;7.656;2023-04-24T01:19:11;3.15;;;1.05;;
44925;SDS011;30662;51.210;7.656;2023-04-24T01:21:39;0.88;;;0.77;;
44925;SDS011;30662;51.210;7.656;2023-04-24T01:24:06;1.02;;;0.90;;
44925;SDS011;30662;51.210;7.656;2023-04-24T01:26:32;1.08;;;0.90;;
44925;SDS011;30662;51.210;7.656;2023-04-24T01:28:58;0.82;;;0.80;;
44925;SDS011;30662;51.210;7.656;2023-04-24T01:31:24;2.33;;;0.98;;
44925;SDS011;30662;51.210;7.656;2023-04-24T01:33:50;1.85;;;1.10;;
44925;SDS011;30662;51.210;7.656;2023-04-24T01:36:17;1.25;;;1.15;;
44925;SDS011;30662;51.210;7.656;2023-04-24T01:38:44;0.80;;;0.80;;
44925;SDS011;30662;51.210;7.656;2023-04-24T01:41:10;0.88;;;0.77;;
44925;SDS011;30662;51.210;7.656;2023-04-24T01:43:36;3.28;;;1.08;;
44925;SDS011;30662;51.210;7.656;2023-04-24T01:46:02;1.20;;;1.05;;
44925;SDS011;30662;51.210;7.656;2023-04-24T01:48:28;3.05;;;1.20;;
44925;SDS011;30662;51.210;7.656;2023-04-24T01:50:56;2.88;;;0.90;;
44925;SDS011;30662;51.210;7.656;2023-04-24T01:53:22;2.03;;;1.05;;
44925;SDS011;30662;51.210;7.656;2023-04-24T01:55:48;1.10;;;1.00;;
44925;SDS011;30662;51.210;7.656;2023-04-24T01:58:14;0.95;;;0.95;;
44925;SDS011;30662;51.210;7.656;2023-04-24T02:00:40;0.80;;;0.80;;
44925;SDS011;30662;51.210;7.656;2023-04-24T02:03:06;1.15;;;1.00;;
44925;SDS011;30662;51.210;7.656;2023-04-24T02:05:33;1.52;;;1.20;;
44925;SDS011;30662;51.210;7.656;2023-04-24T02:07:59;1.63;;;0.90;;
44925;SDS011;30662;51.210;7.656;2023-04-24T02:10:25;1.00;;;1.00;;
44925;SDS011;30662;51.210;7.656;2023-04-24T02:12:51;3.28;;;1.60;;
44925;SDS011;30662;51.210;7.656;2023-04-24T02:15:17;3.28;;;1.50;;
44925;SDS011;30662;51.210;7.656;2023-04-24T02:17:43;1.60;;;1.25;;
44925;SDS011;30662;51.210;7.656;2023-04-24T02:20:09;2.17;;;1.55;;
44925;SDS011;30662;51.210;7.656;2023-04-24T02:22:35;4.38;;;2.28;;
44925;SDS011;30662;51.210;7.656;2023-04-24T02:25:02;2.30;;;2.10;;
44925;SDS011;30662;51.210;7.656;2023-04-24T02:27:28;2.35;;;2.15;;
44925;SDS011;30662;51.210;7.656;2023-04-24T02:29:54;3.17;;;2.22;;
44925;SDS011;30662;51.210;7.656;2023-04-24T02:32:20;2.72;;;2.45;;
44925;SDS011;30662;51.210;7.656;2023-04-24T02:34:46;3.17;;;2.25;;
44925;SDS011;30662;51.210;7.656;2023-04-24T02:37:12;3.25;;;2.42;;
44925;SDS011;30662;51.210;7.656;2023-04-24T02:39:38;3.25;;;2.40;;
44925;SDS011;30662;51.210;7.656;2023-04-24T02:42:04;2.75;;;2.30;;
44925;SDS011;30662;51.210;7.656;2023-04-24T02:44:29;2.75;;;2.30;;
44925;SDS011;30662;51.210;7.656;2023-04-24T02:46:55;2.92;;;2.40;;
44925;SDS011;30662;51.210;7.656;2023-04-24T02:49:21;2.90;;;2.25;;
44925;SDS011;30662;51.210;7.656;2023-04-24T02:51:47;2.38;;;2.17;;
44925;SDS011;30662;51.210;7.656;2023-04-24T02:54:13;3.00;;;2.70;;
44925;SDS011;30662;51.210;7.656;2023-04-24T02:56:39;4.05;;;2.13;;
44925;SDS011;30662;51.210;7.656;2023-04-24T02:59:05;2.35;;;2.15;;
44925;SDS011;30662;51.210;7.656;2023-04-24T03:01:31;2.97;;;2.53;;
44925;SDS011;30662;51.210;7.656;2023-04-24T03:03:57;5.70;;;4.03;;
44925;SDS011;30662;51.210;7.656;2023-04-24T03:06:23;3.70;;;2.95;;
44925;SDS011;30662;51.210;7.656;2023-04-24T03:08:49;3.80;;;3.28;;
44925;SDS011;30662;51.210;7.656;2023-04-24T03:11:15;4.10;;;3.58;;
44925;SDS011;30662;51.210;7.656;2023-04-24T03:13:41;4.65;;;3.70;;
44925;SDS011;30662;51.210;7.656;2023-04-24T03:16:07;5.22;;;4.20;;
44925;SDS011;30662;51.210;7.656;2023-04-24T03:18:32;5.05;;;4.15;;
44925;SDS011;30662;51.210;7.656;2023-04-24T03:20:58;4.30;;;3.90;;
44925;SDS011;30662;51.210;7.656;2023-04-24T03:23:24;5.97;;;5.03;;
44925;SDS011;30662;51.210;7.656;2023-04-24T03:25:50;7.15;;;5.22;;
44925;SDS011;30662;51.210;7.656;2023-04-24T03:28:16;9.07;;;5.70;;
44925;SDS011;30662;51.210;7.656;2023-04-24T03:30:42;7.07;;;5.40;;
44925;SDS011;30662;51.210;7.656;2023-04-24T03:33:08;7.22;;;5.95;;
44925;SDS011;30662;51.210;7.656;2023-04-24T03:35:35;8.48;;;6.22;;
44925;SDS011;30662;51.210;7.656;2023-04-24T03:38:01;7.40;;;6.65;;
44925;SDS011;30662;51.210;7.656;2023-04-24T03:40:29;9.18;;;7.55;;
44925;SDS011;30662;51.210;7.656;2023-04-24T03:42:56;8.98;;;7.40;;
44925;SDS011;30662;51.210;7.656;2023-04-24T03:45:21;7.32;;;6.63;;
44925;SDS011;30662;51.210;7.656;2023-04-24T03:47:47;8.00;;;6.55;;
44925;SDS011;30662;51.210;7.656;2023-04-24T03:50:14;8.10;;;6.65;;
44925;SDS011;30662;51.210;7.656;2023-04-24T03:52:40;6.95;;;6.25;;
44925;SDS011;30662;51.210;7.656;2023-04-24T03:55:06;7.38;;;6.03;;
44925;SDS011;30662;51.210;7.656;2023-04-24T03:57:32;7.47;;;6.07;;
44925;SDS011;30662;51.210;7.656;2023-04-24T03:59:58;7.63;;;6.10;;
44925;SDS011;30662;51.210;7.656;2023-04-24T04:02:24;8.35;;;7.45;;
44925;SDS011;30662;51.210;7.656;2023-04-24T04:04:50;8.90;;;6.90;;
44925;SDS011;30662;51.210;7.656;2023-04-24T04:07:15;8.57;;;6.80;;
44925;SDS011;30662;51.210;7.656;2023-04-24T04:09:41;9.32;;;7.18;;
44925;SDS011;30662;51.210;7.656;2023-04-24T04:12:07;16.83;;;9.73;;
44925;SDS011;30662;51.210;7.656;2023-04-24T04:14:33;9.82;;;7.15;;
44925;SDS011;30662;51.210;7.656;2023-04-24T04:16:59;8.55;;;7.35;;
44925;SDS011;30662;51.210;7.656;2023-04-24T04:19:26;11.20;;;8.02;;
44925;SDS011;30662;51.210;7.656;2023-04-24T04:21:52;7.72;;;6.60;;
44925;SDS011;30662;51.210;7.656;2023-04-24T04:24:19;9.07;;;7.00;;
44925;SDS011;30662;51.210;7.656;2023-04-24T04:26:46;8.23;;;6.72;;
44925;SDS011;30662;51.210;7.656;2023-04-24T04:29:13;9.60;;;7.70;;
44925;SDS011;30662;51.210;7.656;2023-04-24T04:31:39;10.63;;;8.10;;
44925;SDS011;30662;51.210;7.656;2023-04-24T04:34:05;8.43;;;7.10;;
44925;SDS011;30662;51.210;7.656;2023-04-24T04:36:31;10.20;;;7.25;;
44925;SDS011;30662;51.210;7.656;2023-04-24T04:38:57;7.75;;;6.60;;
44925;SDS011;30662;51.210;7.656;2023-04-24T04:41:24;8.52;;;7.63;;
44925;SDS011;30662;51.210;7.656;2023-04-24T04:43:50;8.45;;;7.53;;
44925;SDS011;30662;51.210;7.656;2023-04-24T04:46:18;11.85;;;7.85;;
44925;SDS011;30662;51.210;7.656;2023-04-24T04:48:44;11.23;;;7.53;;
44925;SDS011;30662;51.210;7.656;2023-04-24T04:51:10;11.48;;;8.18;;
44925;SDS011;30662;51.210;7.656;2023-04-24T04:53:35;13.55;;;8.05;;
44925;SDS011;30662;51.210;7.656;2023-04-24T04:56:01;14.35;;;8.00;;
44925;SDS011;30662;51.210;7.656;2023-04-24T04:58:27;7.97;;;7.05;;
44925;SDS011;30662;51.210;7.656;2023-04-24T05:00:53;10.18;;;8.38;;
44925;SDS011;30662;51.210;7.656;2023-04-24T05:03:19;9.05;;;7.60;;
44925;SDS011;30662;51.210;7.656;2023-04-24T05:05:47;11.88;;;8.13;;
44925;SDS011;30662;51.210;7.656;2023-04-24T05:08:13;11.32;;;7.30;;
44925;SDS011;30662;51.210;7.656;2023-04-24T05:10:53;12.25;;;8.32;;
44925;SDS011;30662;51.210;7.656;2023-04-24T05:13:19;9.50;;;7.57;;
44925;SDS011;30662;51.210;7.656;2023-04-24T05:16:01;8.15;;;7.25;;
44925;SDS011;30662;51.210;7.656;2023-04-24T05:18:27;7.70;;;6.88;;
44925;SDS011;30662;51.210;7.656;2023-04-24T05:20:53;8.98;;;7.53;;
44925;SDS011;30662;51.210;7.656;2023-04-24T05:23:18;9.50;;;6.80;;
44925;SDS011;30662;51.210;7.656;2023-04-24T05:25:44;7.80;;;6.65;;
44925;SDS011;30662;51.210;7.656;2023-04-24T05:28:11;9.13;;;6.55;;
44925;SDS011;30662;51.210;7.656;2023-04-24T05:30:37;8.40;;;6.95;;
44925;SDS011;30662;51.210;7.656;2023-04-24T05:33:03;8.00;;;6.57;;
44925;SDS011;30662;51.210;7.656;2023-04-24T05:35:29;8.30;;;7.22;;
44925;SDS011;30662;51.210;7.656;2023-04-24T05:37:55;8.57;;;7.35;;
44925;SDS011;30662;51.210;7.656;2023-04-24T05:40:20;6.97;;;6.25;;
44925;SDS011;30662;51.210;7.656;2023-04-24T05:42:47;10.02;;;7.80;;
44925;SDS011;30662;51.210;7.656;2023-04-24T05:45:13;8.35;;;6.53;;
44925;SDS011;30662;51.210;7.656;2023-04-24T05:47:45;8.23;;;6.63;;
44925;SDS011;30662;51.210;7.656;2023-04-24T05:50:11;7.55;;;6.47;;
44925;SDS011;30662;51.210;7.656;2023-04-24T05:52:37;9.90;;;7.25;;
44925;SDS011;30662;51.210;7.656;2023-04-24T05:55:03;8.63;;;6.55;;
44925;SDS011;30662;51.210;7.656;2023-04-24T05:57:29;7.95;;;7.07;;
44925;SDS011;30662;51.210;7.656;2023-04-24T05:59:55;8.07;;;7.00;;
44925;SDS011;30662;51.210;7.656;2023-04-24T06:02:21;10.90;;;7.10;;
44925;SDS011;30662;51.210;7.656;2023-04-24T06:04:47;9.10;;;6.75;;
44925;SDS011;30662;51.210;7.656;2023-04-24T06:07:13;8.25;;;7.45;;
44925;SDS011;30662;51.210;7.656;2023-04-24T06:09:42;7.57;;;6.28;;
44925;SDS011;30662;51.210;7.656;2023-04-24T06:12:08;7.97;;;7.10;;
44925;SDS011;30662;51.210;7.656;2023-04-24T06:14:34;6.70;;;6.00;;
44925;SDS011;30662;51.210;7.656;2023-04-24T06:17:00;8.00;;;7.20;;
44925;SDS011;30662;51.210;7.656;2023-04-24T06:19:26;7.95;;;6.53;;
44925;SDS011;30662;51.210;7.656;2023-04-24T06:21:52;7.72;;;6.82;;
44925;SDS011;30662;51.210;7.656;2023-04-24T06:24:18;7.03;;;6.28;;
44925;SDS011;30662;51.210;7.656;2023-04-24T06:26:44;8.18;;;6.80;;
44925;SDS011;30662;51.210;7.656;2023-04-24T06:29:10;6.88;;;6.20;;
44925;SDS011;30662;51.210;7.656;2023-04-24T06:31:35;8.90;;;7.05;;
44925;SDS011;30662;51.210;7.656;2023-04-24T06:34:03;7.70;;;6.85;;
44925;SDS011;30662;51.210;7.656;2023-04-24T06:36:29;9.35;;;7.05;;
44925;SDS011;30662;51.210;7.656;2023-04-24T06:38:56;9.15;;;8.02;;
44925;SDS011;30662;51.210;7.656;2023-04-24T06:41:23;11.73;;;7.70;;
44925;SDS011;30662;51.210;7.656;2023-04-24T06:43:48;11.98;;;8.13;;
44925;SDS011;30662;51.210;7.656;2023-04-24T06:46:14;9.70;;;7.85;;
44925;SDS011;30662;51.210;7.656;2023-04-24T06:48:40;9.13;;;7.30;;
44925;SDS011;30662;51.210;7.656;2023-04-24T06:51:06;9.30;;;7.35;;
44925;SDS011;30662;51.210;7.656;2023-04-24T06:53:32;8.07;;;7.28;;
44925;SDS011;30662;51.210;7.656;2023-04-24T06:55:58;10.80;;;7.40;;
44925;SDS011;30662;51.210;7.656;2023-04-24T06:58:24;10.07;;;8.00;;
44925;SDS011;30662;51.210;7.656;2023-04-24T07:00:50;10.32;;;8.38;;
44925;SDS011;30662;51.210;7.656;2023-04-24T07:03:16;10.63;;;8.57;;
44925;SDS011;30662;51.210;7.656;2023-04-24T07:05:42;9.90;;;8.25;;
44925;SDS011;30662;51.210;7.656;2023-04-24T07:08:08;8.82;;;7.78;;
44925;SDS011;30662;51.210;7.656;2023-04-24T07:10:36;10.68;;;8.27;;
44925;SDS011;30662;51.210;7.656;2023-04-24T07:13:02;8.48;;;7.60;;
44925;SDS011;30662;51.210;7.656;2023-04-24T07:15:30;8.25;;;7.35;;
44925;SDS011;30662;51.210;7.656;2023-04-24T07:17:57;10.48;;;8.02;;
44925;SDS011;30662;51.210;7.656;2023-04-24T07:20:23;10.18;;;7.38;;
44925;SDS011;30662;51.210;7.656;2023-04-24T07:22:49;8.13;;;7.30;;
44925;SDS011;30662;51.210;7.656;2023-04-24T07:25:15;7.95;;;7.15;;
44925;SDS011;30662;51.210;7.656;2023-04-24T07:27:41;10.75;;;8.00;;
44925;SDS011;30662;51.210;7.656;2023-04-24T07:30:07;7.85;;;6.95;;
44925;SDS011;30662;51.210;7.656;2023-04-24T07:32:33;6.93;;;6.22;;
44925;SDS011;30662;51.210;7.656;2023-04-24T07:34:59;7.03;;;6.32;;
44925;SDS011;30662;51.210;7.656;2023-04-24T07:37:25;5.68;;;5.28;;
44925;SDS011;30662;51.210;7.656;2023-04-24T07:39:51;5.35;;;4.85;;
44925;SDS011;30662;51.210;7.656;2023-04-24T07:42:17;6.78;;;5.10;;
44925;SDS011;30662;51.210;7.656;2023-04-24T07:44:43;4.15;;;3.72;;
44925;SDS011;30662;51.210;7.656;2023-04-24T07:47:08;3.70;;;3.40;;
44925;SDS011;30662;51.210;7.656;2023-04-24T07:49:35;3.30;;;3.00;;
44925;SDS011;30662;51.210;7.656;2023-04-24T07:52:00;3.88;;;3.42;;
44925;SDS011;30662;51.210;7.656;2023-04-24T07:54:28;3.13;;;2.83;;
44925;SDS011;30662;51.210;7.656;2023-04-24T07:56:54;4.43;;;2.67;;
44925;SDS011;30662;51.210;7.656;2023-04-24T07:59:20;2.30;;;1.83;;
44925;SDS011;30662;51.210;7.656;2023-04-24T08:01:46;1.88;;;1.70;;
44925;SDS011;30662;51.210;7.656;2023-04-24T08:04:11;2.95;;;2.13;;
44925;SDS011;30662;51.210;7.656;2023-04-24T08:06:38;1.63;;;1.23;;
44925;SDS011;30662;51.210;7.656;2023-04-24T08:09:03;2.15;;;1.70;;
44925;SDS011;30662;51.210;7.656;2023-04-24T08:11:29;1.90;;;1.75;;
44925;SDS011;30662;51.210;7.656;2023-04-24T08:13:55;2.05;;;1.95;;
44925;SDS011;30662;51.210;7.656;2023-04-24T08:16:21;2.30;;;2.10;;
44925;SDS011;30662;51.210;7.656;2023-04-24T08:18:49;3.53;;;2.83;;
44925;SDS011;30662;51.210;7.656;2023-04-24T08:21:15;2.45;;;2.25;;
44925;SDS011;30662;51.210;7.656;2023-04-24T08:23:46;3.08;;;2.10;;
44925;SDS011;30662;51.210;7.656;2023-04-24T08:26:12;2.85;;;2.28;;
44925;SDS011;30662;51.210;7.656;2023-04-24T08:28:39;2.42;;;2.22;;
44925;SDS011;30662;51.210;7.656;2023-04-24T08:31:05;2.83;;;1.70;;
44925;SDS011;30662;51.210;7.656;2023-04-24T08:33:31;2.80;;;2.20;;
44925;SDS011;30662;51.210;7.656;2023-04-24T08:36:01;1.65;;;1.55;;
44925;SDS011;30662;51.210;7.656;2023-04-24T08:38:28;0.80;;;0.80;;
44925;SDS011;30662;51.210;7.656;2023-04-24T08:40:54;0.80;;;0.80;;
44925;SDS011;30662;51.210;7.656;2023-04-24T08:43:21;1.40;;;0.80;;
44925;SDS011;30662;51.210;7.656;2023-04-24T08:45:48;0.82;;;0.82;;
44925;SDS011;30662;51.210;7.656;2023-04-24T08:48:15;0.98;;;0.98;;
44925;SDS011;30662;51.210;7.656;2023-04-24T08:50:55;0.68;;;0.68;;
44925;SDS011;30662;51.210;7.656;2023-04-24T08:53:22;0.90;;;0.90;;
44925;SDS011;30662;51.210;7.656;2023-04-24T08:55:50;0.77;;;0.52;;
44925;SDS011;30662;51.210;7.656;2023-04-24T08:58:18;0.50;;;0.50;;
44925;SDS011;30662;51.210;7.656;2023-04-24T09:00:44;0.30;;;0.30;;
44925;SDS011;30662;51.210;7.656;2023-04-24T09:03:16;0.47;;;0.47;;
44925;SDS011;30662;51.210;7.656;2023-04-24T09:05:44;0.47;;;0.40;;
44925;SDS011;30662;51.210;7.656;2023-04-24T09:08:16;0.60;;;0.60;;
44925;SDS011;30662;51.210;7.656;2023-04-24T09:10:43;0.60;;;0.60;;
44925;SDS011;30662;51.210;7.656;2023-04-24T09:13:10;0.50;;;0.50;;
44925;SDS011;30662;51.210;7.656;2023-04-24T09:15:37;3.97;;;1.40;;
44925;SDS011;30662;51.210;7.656;2023-04-24T09:18:03;6.22;;;3.70;;
44925;SDS011;30662;51.210;7.656;2023-04-24T09:20:30;1.13;;;0.70;;
44925;SDS011;30662;51.210;7.656;2023-04-24T09:22:57;0.95;;;0.80;;
44925;SDS011;30662;51.210;7.656;2023-04-24T09:25:32;0.80;;;0.80;;
44925;SDS011;30662;51.210;7.656;2023-04-24T09:28:00;1.08;;;0.90;;
44925;SDS011;30662;51.210;7.656;2023-04-24T09:30:28;1.73;;;1.27;;
44925;SDS011;30662;51.210;7.656;2023-04-24T09:33:10;1.15;;;1.10;;
44925;SDS011;30662;51.210;7.656;2023-04-24T09:35:40;1.13;;;0.98;;
44925;SDS011;30662;51.210;7.656;2023-04-24T09:38:15;1.20;;;1.10;;
44925;SDS011;30662;51.210;7.656;2023-04-24T09:40:41;1.02;;;1.00;;
44925;SDS011;30662;51.210;7.656;2023-04-24T09:43:10;1.63;;;1.17;;
44925;SDS011;30662;51.210;7.656;2023-04-24T09:45:37;1.50;;;1.40;;
44925;SDS011;30662;51.210;7.656;2023-04-24T09:48:04;1.73;;;1.42;;
44925;SDS011;30662;51.210;7.656;2023-04-24T09:50:31;1.50;;;1.38;;
44925;SDS011;30662;51.210;7.656;2023-04-24T09:52:58;1.52;;;1.42;;
44925;SDS011;30662;51.210;7.656;2023-04-24T09:55:28;1.45;;;1.35;;
44925;SDS011;30662;51.210;7.656;2023-04-24T09:57:58;0.80;;;0.80;;
44925;SDS011;30662;51.210;7.656;2023-04-24T10:00:32;0.82;;;0.82;;
44925;SDS011;30662;51.210;7.656;2023-04-24T10:02:59;0.98;;;0.98;;
44925;SDS011;30662;51.210;7.656;2023-04-24T10:05:33;1.58;;;1.15;;
44925;SDS011;30662;51.210;7.656;2023-04-24T10:08:05;1.30;;;1.20;;
44925;SDS011;30662;51.210;7.656;2023-04-24T10:10:34;2.88;;;1.27;;
44925;SDS011;30662;51.210;7.656;2023-04-24T10:13:12;1.08;;;0.93;;
44925;SDS011;30662;51.210;7.656;2023-04-24T10:15:41;2.95;;;1.10;;
44925;SDS011;30662;51.210;7.656;2023-04-24T10:18:08;1.30;;;1.20;;
44925;SDS011;30662;51.210;7.656;2023-04-24T10:20:36;1.65;;;1.20;;
44925;SDS011;30662;51.210;7.656;2023-04-24T10:23:03;1.88;;;1.77;;
44925;SDS011;30662;51.210;7.656;2023-04-24T10:25:30;2.03;;;1.75;;
44925;SDS011;30662;51.210;7.656;2023-04-24T10:27:57;1.30;;;1.20;;
44925;SDS011;30662;51.210;7.656;2023-04-24T10:30:26;1.45;;;1.10;;
44925;SDS011;30662;51.210;7.656;2023-04-24T10:32:53;1.60;;;1.17;;
44925;SDS011;30662;51.210;7.656;2023-04-24T10:35:19;2.10;;;1.00;;
44925;SDS011;30662;51.210;7.656;2023-04-24T10:40:50;1.83;;;1.23;;
44925;SDS011;30662;51.210;7.656;2023-04-24T10:43:16;2.42;;;1.45;;
44925;SDS011;30662;51.210;7.656;2023-04-24T10:45:59;1.40;;;1.30;;
44925;SDS011;30662;51.210;7.656;2023-04-24T10:48:29;1.80;;;1.33;;
44925;SDS011;30662;51.210;7.656;2023-04-24T10:50:56;2.35;;;1.50;;
44925;SDS011;30662;51.210;7.656;2023-04-24T10:53:22;3.13;;;1.75;;
44925;SDS011;30662;51.210;7.656;2023-04-24T10:56:02;2.65;;;1.60;;
44925;SDS011;30662;51.210;7.656;2023-04-24T11:01:28;2.78;;;1.80;;
44925;SDS011;30662;51.210;7.656;2023-04-24T11:03:56;2.20;;;1.88;;
44925;SDS011;30662;51.210;7.656;2023-04-24T11:11:31;3.60;;;2.78;;
44925;SDS011;30662;51.210;7.656;2023-04-24T11:16:31;4.95;;;2.60;;
44925;SDS011;30662;51.210;7.656;2023-04-24T11:19:08;2.75;;;2.45;;
44925;SDS011;30662;51.210;7.656;2023-04-24T11:21:48;4.55;;;2.92;;
44925;SDS011;30662;51.210;7.656;2023-04-24T11:24:26;4.07;;;2.72;;
44925;SDS011;30662;51.210;7.656;2023-04-24T11:26:54;4.43;;;3.20;;
44925;SDS011;30662;51.210;7.656;2023-04-24T11:29:22;4.82;;;3.03;;
44925;SDS011;30662;51.210;7.656;2023-04-24T11:32:16;4.78;;;2.92;;
44925;SDS011;30662;51.210;7.656;2023-04-24T11:34:51;5.60;;;3.70;;
44925;SDS011;30662;51.210;7.656;2023-04-24T11:37:18;5.53;;;3.15;;
44925;SDS011;30662;51.210;7.656;2023-04-24T11:39:44;6.28;;;3.20;;
44925;SDS011;30662;51.210;7.656;2023-04-24T11:42:10;8.65;;;3.67;;
44925;SDS011;30662;51.210;7.656;2023-04-24T11:44:42;5.72;;;2.70;;
44925;SDS011;30662;51.210;7.656;2023-04-24T11:47:08;4.65;;;2.85;;
44925;SDS011;30662;51.210;7.656;2023-04-24T11:49:37;6.00;;;3.42;;
44925;SDS011;30662;51.210;7.656;2023-04-24T11:52:04;10.68;;;4.00;;
44925;SDS011;30662;51.210;7.656;2023-04-24T11:54:30;6.55;;;2.78;;
44925;SDS011;30662;51.210;7.656;2023-04-24T11:56:56;8.50;;;3.30;;
44925;SDS011;30662;51.210;7.656;2023-04-24T11:59:25;11.30;;;3.55;;
44925;SDS011;30662;51.210;7.656;2023-04-24T12:01:50;12.00;;;4.15;;
44925;SDS011;30662;51.210;7.656;2023-04-24T12:04:17;8.20;;;3.92;;
44925;SDS011;30662;51.210;7.656;2023-04-24T12:07:00;7.80;;;4.45;;
44925;SDS011;30662;51.210;7.656;2023-04-24T12:09:26;11.75;;;4.25;;
44925;SDS011;30662;51.210;7.656;2023-04-24T12:11:53;12.40;;;4.72;;
44925;SDS011;30662;51.210;7.656;2023-04-24T12:14:23;7.63;;;3.97;;
44925;SDS011;30662;51.210;7.656;2023-04-24T12:16:49;10.70;;;5.38;;
44925;SDS011;30662;51.210;7.656;2023-04-24T12:19:22;12.63;;;5.47;;
44925;SDS011;30662;51.210;7.656;2023-04-24T12:21:58;13.45;;;5.30;;
44925;SDS011;30662;51.210;7.656;2023-04-24T12:24:29;10.10;;;5.47;;
44925;SDS011;30662;51.210;7.656;2023-04-24T12:26:56;10.48;;;5.43;;
44925;SDS011;30662;51.210;7.656;2023-04-24T12:29:23;10.10;;;5.90;;
44925;SDS011;30662;51.210;7.656;2023-04-24T12:31:50;10.63;;;5.50;;
44925;SDS011;30662;51.210;7.656;2023-04-24T12:34:20;9.32;;;4.95;;
44925;SDS011;30662;51.210;7.656;2023-04-24T12:36:47;11.13;;;5.25;;
44925;SDS011;30662;51.210;7.656;2023-04-24T12:39:14;9.13;;;4.72;;
44925;SDS011;30662;51.210;7.656;2023-04-24T12:41:54;9.55;;;4.43;;
44925;SDS011;30662;51.210;7.656;2023-04-24T12:44:28;8.98;;;4.70;;
44925;SDS011;30662;51.210;7.656;2023-04-24T12:47:00;9.70;;;4.60;;
44925;SDS011;30662;51.210;7.656;2023-04-24T12:49:27;8.18;;;4.57;;
44925;SDS011;30662;51.210;7.656;2023-04-24T12:51:53;12.63;;;4.95;;
44925;SDS011;30662;51.210;7.656;2023-04-24T12:54:19;10.65;;;5.30;;
44925;SDS011;30662;51.210;7.656;2023-04-24T12:56:45;10.40;;;4.57;;
44925;SDS011;30662;51.210;7.656;2023-04-24T12:59:11;10.50;;;5.00;;
44925;SDS011;30662;51.210;7.656;2023-04-24T13:01:37;12.02;;;5.15;;
44925;SDS011;30662;51.210;7.656;2023-04-24T13:04:03;10.25;;;5.25;;
44925;SDS011;30662;51.210;7.656;2023-04-24T13:06:29;13.27;;;6.38;;
44925;SDS011;30662;51.210;7.656;2023-04-24T13:08:55;15.05;;;5.97;;
44925;SDS011;30662;51.210;7.656;2023-04-24T13:11:23;15.20;;;5.30;;
44925;SDS011;30662;51.210;7.656;2023-04-24T13:13:49;10.65;;;5.00;;
44925;SDS011;30662;51.210;7.656;2023-04-24T13:16:17;10.60;;;5.60;;
44925;SDS011;30662;51.210;7.656;2023-04-24T13:18:43;10.93;;;5.40;;
44925;SDS011;30662;51.210;7.656;2023-04-24T13:21:09;11.43;;;5.93;;
44925;SDS011;30662;51.210;7.656;2023-04-24T13:23:35;9.43;;;4.35;;
44925;SDS011;30662;51.210;7.656;2023-04-24T13:26:00;11.15;;;4.40;;
44925;SDS011;30662;51.210;7.656;2023-04-24T13:28:26;11.38;;;4.97;;
44925;SDS011;30662;51.210;7.656;2023-04-24T13:30:53;13.13;;;5.97;;
44925;SDS011;30662;51.210;7.656;2023-04-24T13:33:19;13.88;;;5.13;;
44925;SDS011;30662;51.210;7.656;2023-04-24T13:35:45;12.48;;;4.40;;
44925;SDS011;30662;51.210;7.656;2023-04-24T13:38:10;17.08;;;4.88;;
44925;SDS011;30662;51.210;7.656;2023-04-24T13:40:36;9.32;;;4.50;;
44925;SDS011;30662;51.210;7.656;2023-04-24T13:43:02;8.63;;;4.47;;
44925;SDS011;30662;51.210;7.656;2023-04-24T13:45:28;8.57;;;4.05;;
44925;SDS011;30662;51.210;7.656;2023-04-24T13:47:54;11.32;;;4.07;;
44925;SDS011;30662;51.210;7.656;2023-04-24T13:50:22;8.82;;;3.80;;
44925;SDS011;30662;51.210;7.656;2023-04-24T13:52:48;9.23;;;3.47;;
44925;SDS011;30662;51.210;7.656;2023-04-24T13:55:14;9.35;;;4.13;;
44925;SDS011;30662;51.210;7.656;2023-04-24T13:57:40;8.00;;;3.60;;
44925;SDS011;30662;51.210;7.656;2023-04-24T14:00:06;6.82;;;3.67;;
44925;SDS011;30662;51.210;7.656;2023-04-24T14:02:35;7.57;;;3.47;;
44925;SDS011;30662;51.210;7.656;2023-04-24T14:05:02;4.78;;;2.63;;
44925;SDS011;30662;51.210;7.656;2023-04-24T14:07:29;6.78;;;3.30;;
44925;SDS011;30662;51.210;7.656;2023-04-24T14:09:55;5.50;;;2.78;;
44925;SDS011;30662;51.210;7.656;2023-04-24T14:12:22;4.78;;;2.95;;
44925;SDS011;30662;51.210;7.656;2023-04-24T14:14:48;4.97;;;2.45;;
44925;SDS011;30662;51.210;7.656;2023-04-24T14:17:14;3.25;;;2.30;;
44925;SDS011;30662;51.210;7.656;2023-04-24T14:19:40;2.85;;;1.80;;
44925;SDS011;30662;51.210;7.656;2023-04-24T14:22:06;7.13;;;2.58;;
44925;SDS011;30662;51.210;7.656;2023-04-24T14:24:32;9.27;;;3.38;;
44925;SDS011;30662;51.210;7.656;2023-04-24T14:26:58;6.55;;;2.30;;
44925;SDS011;30662;51.210;7.656;2023-04-24T14:29:24;5.07;;;3.25;;
44925;SDS011;30662;51.210;7.656;2023-04-24T14:31:51;5.05;;;2.28;;
44925;SDS011;30662;51.210;7.656;2023-04-24T14:34:17;7.60;;;2.45;;
44925;SDS011;30662;51.210;7.656;2023-04-24T14:36:43;4.47;;;3.13;;
44925;SDS011;30662;51.210;7.656;2023-04-24T14:39:09;5.05;;;2.95;;
44925;SDS011;30662;51.210;7.656;2023-04-24T14:41:35;4.50;;;2.78;;
44925;SDS011;30662;51.210;7.656;2023-04-24T14:44:02;5.85;;;2.70;;
44925;SDS011;30662;51.210;7.656;2023-04-24T14:46:29;6.35;;;2.83;;
44925;SDS011;30662;51.210;7.656;2023-04-24T14:48:58;7.05;;;2.85;;
44925;SDS011;30662;51.210;7.656;2023-04-24T14:51:24;7.15;;;2.63;;
44925;SDS011;30662;51.210;7.656;2023-04-24T14:53:51;4.63;;;2.13;;
44925;SDS011;30662;51.210;7.656;2023-04-24T14:56:17;7.40;;;2.88;;
44925;SDS011;30662;51.210;7.656;2023-04-24T14:58:43;8.88;;;3.20;;